Time;durP1;ratioP1;P1;durP2;ratioP2;P2;SDS_P1;SDS_P2;PMS_P1;PMS_P2;Temp;Humidity;BMP_temperature;BMP_pressure;BME280_temperature;BME280_humidity;BME280_pressure;Samples;Min_cycle;Max_cycle;Signal;HPM_P1;HPM_P2
2022/05/27 00:01:21;;;;;;;17.80;8.45;;;16.20;99.90;;;;;;5077800;28;20195;-71
2022/05/27 00:03:47;;;;;;;11.80;9.00;;;16.20;99.90;;;;;;5087490;28;20214;-73
2022/05/27 00:06:13;;;;;;;12.93;9.60;;;16.20;99.90;;;;;;5112982;27;20281;-71
2022/05/27 00:08:38;;;;;;;9.80;8.35;;;16.00;99.90;;;;;;5111641;27;20220;-70
2022/05/27 00:11:05;;;;;;;12.35;9.40;;;16.10;99.90;;;;;;5112902;28;20204;-72
2022/05/27 00:13:30;;;;;;;10.60;9.02;;;16.00;99.90;;;;;;5110902;28;20190;-71
2022/05/27 00:15:56;;;;;;;13.10;10.88;;;15.90;99.90;;;;;;5112631;28;20231;-72
2022/05/27 00:18:22;;;;;;;14.05;9.82;;;15.90;99.90;;;;;;5101569;27;20194;-71
2022/05/27 00:20:47;;;;;;;14.13;9.75;;;15.90;99.90;;;;;;5106083;28;20209;-71
2022/05/27 00:23:14;;;;;;;12.70;10.77;;;15.90;99.90;;;;;;5098740;28;20199;-72
2022/05/27 00:25:40;;;;;;;12.35;9.65;;;15.90;99.90;;;;;;5111486;28;20173;-70
2022/05/27 00:28:06;;;;;;;15.55;10.30;;;15.90;99.90;;;;;;5110964;28;20249;-71
2022/05/27 00:30:31;;;;;;;13.15;9.60;;;15.90;99.90;;;;;;5112250;28;20649;-71
2022/05/27 00:32:57;;;;;;;11.35;8.68;;;15.80;99.90;;;;;;5107721;28;20194;-71
2022/05/27 00:35:23;;;;;;;11.93;8.75;;;15.80;99.90;;;;;;5112451;28;20201;-71
2022/05/27 00:37:48;;;;;;;13.52;8.73;;;15.80;99.90;;;;;;5112462;28;20244;-71
2022/05/27 00:40:15;;;;;;;8.43;7.55;;;15.80;99.90;;;;;;5110836;28;20200;-71
2022/05/27 00:42:41;;;;;;;10.77;6.88;;;15.80;99.90;;;;;;5097017;28;20248;-71
2022/05/27 00:45:14;;;;;;;8.70;6.97;;;15.90;99.90;;;;;;5110162;28;20212;-72
2022/05/27 00:47:40;;;;;;;10.73;7.93;;;15.80;99.90;;;;;;5112333;28;20209;-71
2022/05/27 00:50:10;;;;;;;8.65;7.68;;;15.90;99.90;;;;;;5111497;28;20548;-71
2022/05/27 00:52:38;;;;;;;8.13;7.10;;;15.90;99.90;;;;;;5111517;28;20217;-71
2022/05/27 00:55:07;;;;;;;9.75;7.72;;;15.80;99.90;;;;;;5088365;28;20213;-72
2022/05/27 00:57:39;;;;;;;11.82;7.70;;;15.80;99.90;;;;;;5087872;28;20203;-73
2022/05/27 01:00:12;;;;;;;8.20;6.75;;;15.90;99.90;;;;;;5088942;28;20698;-72
2022/05/27 01:02:38;;;;;;;9.55;8.07;;;15.80;99.90;;;;;;5089466;28;20202;-71
2022/05/27 01:05:07;;;;;;;10.00;7.50;;;15.90;99.90;;;;;;5089248;28;20173;-72
2022/05/27 01:07:32;;;;;;;7.85;7.05;;;15.90;99.90;;;;;;5090766;28;20224;-72
2022/05/27 01:10:01;;;;;;;9.35;8.40;;;15.90;99.90;;;;;;5103715;28;20641;-72
2022/05/27 01:12:44;;;;;;;11.15;8.23;;;15.90;99.90;;;;;;5111756;28;20686;-72
2022/05/27 01:15:21;;;;;;;8.82;7.93;;;15.90;99.90;;;;;;5127270;22;20588;-73
2022/05/27 01:18:07;;;;;;;10.30;8.07;;;15.70;99.90;;;;;;5065402;28;20206;-73
2022/05/27 01:20:59;;;;;;;9.43;8.20;;;15.60;99.90;;;;;;5091502;28;20623;-72
2022/05/27 01:24:03;;;;;;;9.18;8.23;;;15.70;99.90;;;;;;5091471;28;20205;-72
2022/05/27 01:26:56;;;;;;;12.23;9.73;;;15.70;99.90;;;;;;5091570;28;20209;-72
2022/05/27 01:29:55;;;;;;;10.75;9.65;;;15.60;99.90;;;;;;5072366;28;20218;-72
2022/05/27 01:32:42;;;;;;;11.27;9.73;;;15.60;99.90;;;;;;5073273;28;20167;-72
2022/05/27 01:35:17;;;;;;;12.07;10.25;;;15.70;99.90;;;;;;5081007;28;20186;-72
2022/05/27 01:37:57;;;;;;;13.25;10.98;;;15.70;99.90;;;;;;5091398;28;20174;-72
2022/05/27 01:40:38;;;;;;;12.50;10.55;;;15.60;99.90;;;;;;5072567;28;20284;-72
2022/05/27 01:43:21;;;;;;;13.90;10.27;;;15.70;99.90;;;;;;5073227;28;20202;-72
2022/05/27 01:45:53;;;;;;;14.80;10.80;;;15.70;99.90;;;;;;5074952;28;20209;-72
2022/05/27 01:48:25;;;;;;;13.75;11.40;;;15.70;99.90;;;;;;5090466;28;20264;-73
2022/05/27 01:51:06;;;;;;;14.13;10.60;;;15.60;99.90;;;;;;5057990;28;20207;-72
2022/05/27 01:53:44;;;;;;;11.77;10.57;;;15.70;99.90;;;;;;5072950;28;20212;-72
2022/05/27 01:56:31;;;;;;;11.45;10.32;;;15.70;99.90;;;;;;5091167;28;20190;-72
2022/05/27 01:59:05;;;;;;;13.50;10.55;;;15.70;99.90;;;;;;5077496;28;20166;-72
2022/05/27 02:01:36;;;;;;;15.07;11.50;;;15.70;99.90;;;;;;5091163;28;20825;-72
2022/05/27 02:04:13;;;;;;;15.55;11.77;;;15.70;99.90;;;;;;5091253;28;20572;-72
2022/05/27 02:06:55;;;;;;;13.20;10.77;;;15.70;99.90;;;;;;5090840;28;20244;-72
2022/05/27 02:09:30;;;;;;;12.65;11.35;;;15.70;99.90;;;;;;5090251;28;20205;-72
2022/05/27 02:12:03;;;;;;;15.55;11.90;;;15.70;99.90;;;;;;5090826;28;20197;-72
2022/05/27 02:14:45;;;;;;;12.63;11.30;;;15.80;99.90;;;;;;5090973;28;20209;-72
2022/05/27 02:17:15;;;;;;;16.45;11.45;;;15.70;99.90;;;;;;5095097;28;20631;-72
2022/05/27 02:19:55;;;;;;;14.95;11.40;;;15.70;99.90;;;;;;5076652;28;20184;-73
2022/05/27 02:22:35;;;;;;;12.48;11.18;;;15.60;99.90;;;;;;5089269;28;20250;-72
2022/05/27 02:25:13;;;;;;;14.88;10.90;;;15.70;99.90;;;;;;5069233;28;20263;-72
2022/05/27 02:27:51;;;;;;;13.80;11.70;;;15.60;99.90;;;;;;5076288;28;20234;-72
2022/05/27 02:30:21;;;;;;;13.80;12.25;;;15.60;99.90;;;;;;5094526;28;20210;-72
2022/05/27 02:35:07;;;;;;;15.80;13.23;;;15.60;99.90;;;;;;5094682;28;20666;-72
2022/05/27 02:35:42;;;;;;;13.80;12.27;;;15.60;99.90;;;;;;5094128;28;20690;-72
2022/05/27 02:38:07;;;;;;;13.60;12.13;;;15.70;99.90;;;;;;5075742;28;20166;-72
2022/05/27 02:40:40;;;;;;;13.43;11.35;;;15.70;99.90;;;;;;5095021;28;20681;-72
2022/05/27 02:43:21;;;;;;;12.52;10.45;;;15.60;99.90;;;;;;5076366;28;20292;-73
2022/05/27 02:46:02;;;;;;;10.23;9.23;;;15.60;99.90;;;;;;5094429;28;20285;-73
2022/05/27 02:48:52;;;;;;;10.00;8.95;;;15.60;99.90;;;;;;5093530;28;20193;-72
2022/05/27 02:51:35;;;;;;;12.75;8.95;;;15.70;99.90;;;;;;5076179;28;20210;-72
2022/05/27 02:54:16;;;;;;;9.75;8.60;;;15.70;99.90;;;;;;5070783;28;20248;-72
2022/05/27 02:56:51;;;;;;;10.05;8.38;;;15.70;99.90;;;;;;5075422;28;20551;-72
2022/05/27 02:59:18;;;;;;;10.20;8.90;;;15.70;99.90;;;;;;5093547;28;20226;-73
2022/05/27 03:01:47;;;;;;;10.43;8.13;;;15.70;99.90;;;;;;5075054;28;20170;-72
2022/05/27 03:04:13;;;;;;;9.77;8.15;;;15.60;99.90;;;;;;5094216;28;20273;-72
2022/05/27 03:06:48;;;;;;;10.75;7.70;;;15.70;99.90;;;;;;5093847;28;20210;-72
2022/05/27 03:09:28;;;;;;;9.35;7.95;;;15.70;99.90;;;;;;5093262;28;20280;-72
2022/05/27 03:12:32;;;;;;;9.85;7.97;;;15.70;99.90;;;;;;5075876;28;20216;-73
2022/05/27 03:15:14;;;;;;;8.45;7.18;;;15.70;99.90;;;;;;5093847;28;20206;-72
2022/05/27 03:18:05;;;;;;;8.73;7.10;;;15.70;99.90;;;;;;5093673;28;20198;-72
2022/05/27 03:20:51;;;;;;;11.15;8.32;;;15.60;99.90;;;;;;5093711;28;20541;-73
2022/05/27 03:23:25;;;;;;;9.45;7.32;;;15.70;99.90;;;;;;5093938;28;20185;-72
2022/05/27 03:26:00;;;;;;;8.15;7.40;;;15.70;99.90;;;;;;5085209;28;20412;-72
2022/05/27 03:28:37;;;;;;;9.20;7.85;;;15.60;99.90;;;;;;5092657;28;20197;-72
2022/05/27 03:31:13;;;;;;;11.65;7.70;;;15.60;99.90;;;;;;5093476;28;20287;-72
2022/05/27 03:33:54;;;;;;;9.60;7.78;;;15.60;99.90;;;;;;5093566;28;20198;-73
2022/05/27 03:36:27;;;;;;;10.93;7.63;;;15.60;99.90;;;;;;5093476;28;20229;-73
2022/05/27 03:39:06;;;;;;;11.30;7.55;;;15.60;99.90;;;;;;5092695;28;20203;-73
2022/05/27 03:41:37;;;;;;;10.48;8.02;;;15.60;99.90;;;;;;5093251;28;20218;-72
2022/05/27 03:44:03;;;;;;;8.35;7.07;;;15.60;99.90;;;;;;5093268;28;20171;-73
2022/05/27 03:46:38;;;;;;;8.50;7.65;;;15.60;99.90;;;;;;5075365;28;20186;-72
2022/05/27 03:49:05;;;;;;;10.30;7.75;;;15.60;99.90;;;;;;5092476;28;20276;-72
2022/05/27 03:51:41;;;;;;;9.02;8.02;;;15.70;99.90;;;;;;5074908;28;20210;-72
2022/05/27 03:54:09;;;;;;;9.75;8.40;;;15.70;99.90;;;;;;5086737;28;20876;-72
2022/05/27 03:56:40;;;;;;;9.98;8.50;;;15.70;99.90;;;;;;5091322;28;20694;-72
2022/05/27 03:59:12;;;;;;;14.07;9.27;;;15.70;99.90;;;;;;5074275;28;20670;-73
2022/05/27 04:01:41;;;;;;;12.15;8.77;;;15.60;99.90;;;;;;5093183;28;20619;-73
2022/05/27 04:04:10;;;;;;;15.05;10.25;;;15.60;99.90;;;;;;5068653;28;20263;-72
2022/05/27 04:06:35;;;;;;;11.18;9.35;;;15.60;99.90;;;;;;5082984;28;20278;-73
2022/05/27 04:09:01;;;;;;;10.73;9.10;;;15.60;99.90;;;;;;5074179;28;20787;-73
2022/05/27 04:11:27;;;;;;;11.35;9.65;;;15.60;99.90;;;;;;5092356;28;20205;-74
2022/05/27 04:13:53;;;;;;;11.73;9.75;;;15.60;99.90;;;;;;5093388;28;20177;-72
2022/05/27 04:16:19;;;;;;;10.15;8.93;;;15.50;99.90;;;;;;5092477;28;20576;-72
2022/05/27 04:18:44;;;;;;;9.63;8.65;;;15.50;99.90;;;;;;5091641;28;20786;-72
2022/05/27 04:21:10;;;;;;;12.35;9.30;;;15.50;99.90;;;;;;5092774;28;20198;-72
2022/05/27 04:23:36;;;;;;;11.55;8.00;;;15.50;99.90;;;;;;5090408;28;20232;-71
2022/05/27 04:26:01;;;;;;;11.73;8.73;;;15.60;99.90;;;;;;5068402;28;20564;-72
2022/05/27 04:28:27;;;;;;;11.05;9.43;;;15.60;99.90;;;;;;5092172;28;20183;-72
2022/05/27 04:30:52;;;;;;;12.00;9.32;;;15.60;99.90;;;;;;5092386;28;20214;-71
2022/05/27 04:33:18;;;;;;;9.77;8.40;;;15.60;99.90;;;;;;5092609;28;20237;-72
2022/05/27 04:35:43;;;;;;;14.35;9.30;;;15.60;99.90;;;;;;5091726;28;20195;-72
2022/05/27 04:38:09;;;;;;;12.38;9.05;;;15.70;99.90;;;;;;5054072;28;20175;-72
2022/05/27 04:40:35;;;;;;;11.63;8.57;;;15.70;99.90;;;;;;5054564;28;20635;-73
2022/05/27 04:43:02;;;;;;;9.68;8.63;;;15.70;99.90;;;;;;5054659;28;20202;-72
2022/05/27 04:45:28;;;;;;;12.55;9.32;;;15.70;99.90;;;;;;5054326;28;20209;-72
2022/05/27 04:47:53;;;;;;;11.82;8.75;;;15.80;99.90;;;;;;5087783;28;20329;-73
2022/05/27 04:50:19;;;;;;;10.23;8.43;;;15.80;99.90;;;;;;5090618;28;20198;-73
2022/05/27 04:52:45;;;;;;;13.07;9.40;;;15.80;99.90;;;;;;5077310;28;20195;-72
2022/05/27 04:55:13;;;;;;;12.35;9.00;;;15.80;99.90;;;;;;5072246;28;20808;-72
2022/05/27 04:57:42;;;;;;;9.85;8.55;;;15.90;99.90;;;;;;5053939;28;20203;-72
2022/05/27 05:00:12;;;;;;;11.27;8.60;;;15.80;99.90;;;;;;5071473;28;20900;-72
2022/05/27 05:02:37;;;;;;;13.65;9.63;;;15.80;99.90;;;;;;5071528;28;20216;-73
2022/05/27 05:05:04;;;;;;;11.77;8.75;;;15.80;99.90;;;;;;5071738;28;20199;-72
2022/05/27 05:07:29;;;;;;;11.82;8.30;;;15.80;99.90;;;;;;5046935;28;20171;-72
2022/05/27 05:09:55;;;;;;;11.98;8.82;;;15.80;99.90;;;;;;5070879;28;20625;-72
2022/05/27 05:12:22;;;;;;;13.05;8.73;;;15.70;99.90;;;;;;5071396;28;20728;-73
2022/05/27 05:14:49;;;;;;;12.63;9.00;;;15.70;99.90;;;;;;5063633;28;20230;-71
2022/05/27 05:17:14;;;;;;;9.00;8.00;;;15.70;99.90;;;;;;5071747;28;20265;-72
2022/05/27 05:19:40;;;;;;;15.05;9.02;;;15.70;99.90;;;;;;5071362;28;20602;-72
2022/05/27 05:22:05;;;;;;;11.05;7.40;;;15.70;99.90;;;;;;5053609;28;20286;-72
2022/05/27 05:24:31;;;;;;;12.90;7.72;;;15.70;99.90;;;;;;5071267;28;20564;-74
2022/05/27 05:26:57;;;;;;;11.60;8.20;;;15.60;99.90;;;;;;5071406;28;20202;-73
2022/05/27 05:29:23;;;;;;;12.65;7.15;;;15.50;99.90;;;;;;5052644;28;20198;-73
2022/05/27 05:31:48;;;;;;;9.20;7.13;;;15.50;99.90;;;;;;5053864;28;20221;-73
2022/05/27 05:34:14;;;;;;;13.50;6.95;;;15.50;99.90;;;;;;5071274;28;20206;-72
2022/05/27 05:36:39;;;;;;;9.95;6.13;;;15.50;99.90;;;;;;5051606;28;20293;-72
2022/05/27 05:39:05;;;;;;;9.95;5.93;;;15.40;99.90;;;;;;5047052;28;20198;-72
2022/05/27 05:41:34;;;;;;;9.15;5.43;;;15.40;99.90;;;;;;5070903;28;20203;-72
2022/05/27 05:44:00;;;;;;;7.13;4.30;;;15.40;99.90;;;;;;5071565;28;20950;-72
2022/05/27 05:46:27;;;;;;;6.47;4.05;;;15.40;99.90;;;;;;5071050;28;20210;-72
2022/05/27 05:48:53;;;;;;;7.00;3.97;;;15.40;99.90;;;;;;5070235;28;20282;-72
2022/05/27 05:51:19;;;;;;;6.18;4.13;;;15.40;99.90;;;;;;5067643;28;20241;-72
2022/05/27 05:53:45;;;;;;;5.03;3.42;;;15.50;99.90;;;;;;5053155;28;20722;-72
2022/05/27 05:56:11;;;;;;;6.20;3.30;;;15.60;99.90;;;;;;5071067;28;20203;-72
2022/05/27 05:58:36;;;;;;;5.88;3.40;;;15.60;99.90;;;;;;5053002;28;20175;-72
2022/05/27 06:01:02;;;;;;;3.95;2.92;;;15.70;99.90;;;;;;5071102;28;20203;-72
2022/05/27 06:03:28;;;;;;;7.35;3.63;;;15.60;99.90;;;;;;5052946;28;20195;-72
2022/05/27 06:05:54;;;;;;;6.25;3.10;;;15.60;99.90;;;;;;5071083;28;20285;-71
2022/05/27 06:08:19;;;;;;;5.25;3.13;;;15.40;99.90;;;;;;5063321;28;20175;-72
2022/05/27 06:10:46;;;;;;;8.10;3.53;;;15.40;99.90;;;;;;5071489;28;20187;-71
2022/05/27 06:13:12;;;;;;;6.47;3.38;;;15.50;99.90;;;;;;5071327;28;20264;-71
2022/05/27 06:15:37;;;;;;;6.90;3.10;;;15.50;99.90;;;;;;5052812;28;20211;-71
2022/05/27 06:18:05;;;;;;;7.70;3.50;;;15.50;99.90;;;;;;5052189;28;20214;-71
2022/05/27 06:20:31;;;;;;;5.40;3.30;;;15.60;99.90;;;;;;5051620;28;20230;-71
2022/05/27 06:22:56;;;;;;;7.97;3.20;;;15.90;99.90;;;;;;5071320;28;20253;-70
2022/05/27 06:25:23;;;;;;;6.88;3.63;;;16.50;99.90;;;;;;5051903;28;20589;-71
2022/05/27 06:27:48;;;;;;;5.63;3.42;;;16.90;99.90;;;;;;5070589;28;20225;-71
2022/05/27 06:35:43;;;;;;;5.13;3.03;;;16.90;99.90;;;;;;5069684;28;20218;-71
2022/05/27 06:38:09;;;;;;;8.75;3.95;;;16.60;99.90;;;;;;5062108;28;20206;-72
2022/05/27 06:40:35;;;;;;;6.45;3.45;;;16.70;99.90;;;;;;5052931;28;20533;-72
2022/05/27 06:43:00;;;;;;;8.75;4.15;;;17.30;99.90;;;;;;5070040;28;20202;-72
2022/05/27 06:45:26;;;;;;;4.15;2.70;;;17.80;99.90;;;;;;5069748;28;20214;-72
2022/05/27 06:47:52;;;;;;;5.35;3.10;;;18.40;99.90;;;;;;5070189;28;20301;-72
2022/05/27 06:50:17;;;;;;;5.20;2.30;;;19.00;99.90;;;;;;5045552;28;20211;-72
2022/05/27 06:52:43;;;;;;;4.68;2.60;;;19.20;99.90;;;;;;5052641;28;20587;-71
2022/05/27 06:55:11;;;;;;;4.20;2.33;;;19.60;99.90;;;;;;5067253;28;20203;-71
2022/05/27 06:57:37;;;;;;;4.30;2.50;;;19.90;99.90;;;;;;5070496;28;20572;-71
2022/05/27 07:00:06;;;;;;;5.53;2.55;;;20.00;99.90;;;;;;5062584;28;20730;-71
2022/05/27 07:02:32;;;;;;;5.03;2.00;;;20.00;99.90;;;;;;5055522;28;20222;-71
2022/05/27 07:04:57;;;;;;;4.70;2.33;;;20.30;99.90;;;;;;5073721;28;20530;-72
2022/05/27 07:07:28;;;;;;;5.10;2.13;;;20.40;99.90;;;;;;5066564;28;20235;-72
2022/05/27 07:09:53;;;;;;;5.90;2.60;;;20.80;99.90;;;;;;5065586;28;20637;-72
2022/05/27 07:12:19;;;;;;;8.40;2.47;;;21.50;99.90;;;;;;5073122;28;20215;-71
2022/05/27 07:14:44;;;;;;;5.97;2.08;;;21.50;99.90;;;;;;5073622;28;20206;-71
2022/05/27 07:17:10;;;;;;;4.53;1.90;;;21.50;99.90;;;;;;5074319;28;20666;-72
2022/05/27 07:19:36;;;;;;;2.25;1.73;;;22.00;99.90;;;;;;5070473;28;20180;-70
2022/05/27 07:22:04;;;;;;;4.45;2.03;;;21.70;99.90;;;;;;5055844;28;20240;-71
2022/05/27 07:24:30;;;;;;;6.95;2.20;;;21.80;99.90;;;;;;5054863;28;20301;-70
2022/05/27 07:26:55;;;;;;;6.30;2.22;;;21.50;99.90;;;;;;5073694;28;20333;-72
2022/05/27 07:29:21;;;;;;;5.35;1.88;;;21.00;99.90;;;;;;5050833;28;20223;-72
2022/05/27 07:31:46;;;;;;;4.82;2.22;;;21.00;99.90;;;;;;5074038;28;20199;-72
2022/05/27 07:34:12;;;;;;;4.43;2.30;;;21.20;99.90;;;;;;5052372;28;20635;-72
2022/05/27 07:36:37;;;;;;;5.18;2.40;;;21.20;99.90;;;;;;5070860;28;20304;-72
2022/05/27 07:39:04;;;;;;;5.30;2.15;;;21.30;99.90;;;;;;5071892;28;20199;-72
2022/05/27 07:41:30;;;;;;;4.95;2.00;;;21.40;99.90;;;;;;5072776;28;20564;-73
2022/05/27 07:43:59;;;;;;;4.45;1.40;;;21.50;99.90;;;;;;5073717;28;20192;-72
2022/05/27 07:46:25;;;;;;;3.85;1.98;;;21.20;99.90;;;;;;5069400;28;20264;-72
2022/05/27 07:48:50;;;;;;;4.38;1.63;;;21.40;99.90;;;;;;5054542;28;20600;-72
2022/05/27 07:51:16;;;;;;;7.30;1.90;;;21.30;99.90;;;;;;5070103;28;20217;-72
2022/05/27 07:53:41;;;;;;;7.60;2.40;;;21.30;99.90;;;;;;5072911;28;20246;-72
2022/05/27 07:56:09;;;;;;;5.03;2.00;;;20.90;99.90;;;;;;5072363;28;20741;-72
2022/05/27 07:58:35;;;;;;;6.95;2.10;;;20.90;99.90;;;;;;5051749;28;20260;-72
2022/05/27 08:01:01;;;;;;;3.85;1.70;;;21.10;99.90;;;;;;5072863;28;20679;-72
2022/05/27 08:03:28;;;;;;;3.83;2.00;;;21.40;99.90;;;;;;5072133;28;20210;-71
2022/05/27 08:05:55;;;;;;;4.85;1.52;;;21.60;99.90;;;;;;5072879;28;20195;-71
2022/05/27 08:08:21;;;;;;;4.53;1.75;;;21.60;99.90;;;;;;5053215;28;20581;-71
2022/05/27 08:10:47;;;;;;;4.53;1.70;;;21.10;99.90;;;;;;5054749;28;20199;-72
2022/05/27 08:13:12;;;;;;;6.22;1.83;;;21.50;99.90;;;;;;5072639;28;20210;-72
2022/05/27 08:15:38;;;;;;;5.43;1.67;;;22.30;99.90;;;;;;5071426;28;20701;-72
2022/05/27 08:18:04;;;;;;;5.10;1.85;;;22.60;99.90;;;;;;5071990;28;20201;-71
2022/05/27 08:20:33;;;;;;;4.88;1.90;;;23.90;99.90;;;;;;5052490;28;20211;-72
2022/05/27 08:23:00;;;;;;;5.90;2.83;;;24.70;99.70;;;;;;5071992;28;20636;-72
2022/05/27 08:25:27;;;;;;;5.53;2.20;;;24.30;97.80;;;;;;5051155;28;20238;-73
2022/05/27 08:27:54;;;;;;;6.15;2.38;;;24.80;96.20;;;;;;5046526;28;20203;-73
2022/05/27 08:30:22;;;;;;;5.55;1.63;;;24.80;94.80;;;;;;5071937;28;20209;-74
2022/05/27 08:32:48;;;;;;;7.00;2.63;;;25.60;93.60;;;;;;5090810;28;20203;-75
2022/05/27 08:38:01;;;;;;;4.80;1.70;;;25.60;91.20;;;;;;5068391;28;20207;-75
2022/05/27 08:40:38;;;;;;;5.63;1.90;;;24.40;92.80;;;;;;5080153;28;20206;-74
2022/05/27 08:43:18;;;;;;;5.10;1.70;;;24.60;94.80;;;;;;5078089;28;20566;-73
2022/05/27 08:45:51;;;;;;;5.13;1.63;;;24.60;94.10;;;;;;5072109;28;20206;-75
2022/05/27 08:48:17;;;;;;;4.50;1.73;;;23.70;96.00;;;;;;5053525;28;20248;-73
2022/05/27 08:50:51;;;;;;;8.10;2.00;;;22.30;97.90;;;;;;5071803;28;20209;-74
2022/05/27 08:53:42;;;;;;;3.50;2.28;;;21.80;99.50;;;;;;5072129;28;20182;-73
2022/05/27 09:01:51;;;;;;;6.82;2.17;;;22.60;99.30;;;;;;5073119;28;20244;-75
2022/05/27 09:04:33;;;;;;;5.05;2.10;;;23.50;96.30;;;;;;5071782;28;20565;-75
2022/05/27 09:07:35;;;;;;;4.68;1.98;;;23.70;93.20;;;;;;5067799;28;20192;-71
2022/05/27 09:10:05;;;;;;;5.13;1.95;;;23.30;94.40;;;;;;5064786;28;20218;-73
2022/05/27 09:13:03;;;;;;;7.00;2.00;;;23.50;92.20;;;;;;5071351;28;20205;-74
2022/05/27 09:15:58;;;;;;;4.35;1.85;;;23.70;91.80;;;;;;5070304;28;20294;-74
2022/05/27 09:18:46;;;;;;;5.90;1.85;;;23.60;93.30;;;;;;5070473;28;20202;-73
2022/05/27 09:21:29;;;;;;;6.20;2.33;;;22.70;92.90;;;;;;5071509;28;20206;-73
2022/05/27 09:24:10;;;;;;;9.75;2.40;;;22.20;94.80;;;;;;5053132;28;20663;-73
2022/05/27 09:26:44;;;;;;;8.88;1.85;;;22.50;94.50;;;;;;5071238;28;20755;-74
2022/05/27 09:29:40;;;;;;;5.88;1.92;;;21.40;96.00;;;;;;5052543;28;20885;-74
2022/05/27 09:32:09;;;;;;;6.55;2.00;;;20.80;97.90;;;;;;5071307;28;20175;-73
2022/05/27 09:34:37;;;;;;;6.97;2.35;;;20.60;99.40;;;;;;5062861;28;20171;-73
2022/05/27 09:37:07;;;;;;;8.40;2.00;;;20.80;99.70;;;;;;5066153;28;20592;-73
2022/05/27 09:39:32;;;;;;;4.60;1.70;;;21.80;99.20;;;;;;5068650;28;20191;-74
2022/05/27 09:42:16;;;;;;;4.07;1.70;;;22.20;97.20;;;;;;5071219;28;20663;-74
2022/05/27 09:44:50;;;;;;;5.97;2.13;;;21.90;97.90;;;;;;5071314;28;20293;-74
2022/05/27 09:47:17;;;;;;;8.35;2.05;;;21.90;98.40;;;;;;5053307;28;20220;-74
2022/05/27 09:49:46;;;;;;;5.82;1.80;;;21.40;98.40;;;;;;5052753;28;20173;-74
2022/05/27 09:52:11;;;;;;;4.30;1.80;;;21.70;98.30;;;;;;5052802;28;20267;-74
2022/05/27 09:54:47;;;;;;;5.40;1.90;;;21.70;97.40;;;;;;5070759;28;20195;-73
2022/05/27 09:57:16;;;;;;;9.55;2.17;;;21.50;98.30;;;;;;5071096;28;20202;-75
2022/05/27 09:59:57;;;;;;;11.25;1.88;;;21.20;99.40;;;;;;5070464;28;20733;-78
2022/05/27 10:02:35;;;;;;;6.07;1.67;;;21.30;99.20;;;;;;5071668;28;20723;-75
2022/05/27 10:05:01;;;;;;;5.03;2.00;;;21.40;99.60;;;;;;5053472;28;20197;-75
2022/05/27 10:07:36;;;;;;;5.63;2.17;;;21.90;99.30;;;;;;5069198;28;20171;-74
2022/05/27 10:10:31;;;;;;;4.75;1.98;;;21.70;98.90;;;;;;5070510;28;20271;-74
2022/05/27 10:13:12;;;;;;;5.82;2.30;;;21.70;99.20;;;;;;5064046;28;20195;-75
2022/05/27 10:15:38;;;;;;;8.68;2.67;;;21.30;99.40;;;;;;5052593;28;20294;-75
2022/05/27 10:18:22;;;;;;;5.57;2.47;;;21.60;99.50;;;;;;5051666;28;20575;-76
2022/05/27 10:21:01;;;;;;;6.30;2.33;;;21.60;98.50;;;;;;5082018;28;20191;-76
2022/05/27 10:23:34;;;;;;;6.90;2.33;;;20.70;99.90;;;;;;5073344;28;20205;-75
2022/05/27 10:26:27;;;;;;;4.90;2.25;;;20.90;99.90;;;;;;5053357;28;20535;-75
2022/05/27 10:29:10;;;;;;;6.00;2.70;;;20.70;99.90;;;;;;5064400;28;20199;-75
2022/05/27 10:31:36;;;;;;;5.80;2.38;;;20.70;99.90;;;;;;5070045;28;20210;-75
2022/05/27 10:34:02;;;;;;;5.43;2.08;;;20.70;99.90;;;;;;5069969;28;20671;-76
2022/05/27 10:37:00;;;;;;;6.65;2.25;;;20.70;99.90;;;;;;5081175;28;20675;-75
2022/05/27 10:39:39;;;;;;;8.70;2.55;;;20.30;99.90;;;;;;5045096;28;20195;-75
2022/05/27 10:42:44;;;;;;;6.82;1.83;;;20.40;99.90;;;;;;5076846;28;20195;-75
2022/05/27 10:45:26;;;;;;;10.05;2.22;;;20.50;99.90;;;;;;4991255;28;20229;-74
2022/05/27 10:48:22;;;;;;;6.80;2.88;;;20.70;99.90;;;;;;5035793;28;20198;-74
2022/05/27 10:51:13;;;;;;;7.90;2.30;;;20.90;99.90;;;;;;5070981;28;20258;-75
2022/05/27 10:54:04;;;;;;;9.00;2.65;;;20.80;99.90;;;;;;5074477;28;20233;-75
2022/05/27 11:02:04;;;;;;;7.03;2.15;;;20.90;99.90;;;;;;5074397;28;20207;-75
2022/05/27 11:02:53;;;;;;;7.03;2.10;;;20.60;99.30;;;;;;5074905;28;20268;-75
2022/05/27 11:05:31;;;;;;;7.80;2.55;;;20.90;99.00;;;;;;5056072;28;20187;-75
2022/05/27 11:08:19;;;;;;;6.70;2.03;;;20.70;98.40;;;;;;5049124;28;20224;-75
2022/05/27 11:10:50;;;;;;;12.65;2.45;;;20.40;99.40;;;;;;5070440;28;20227;-75
2022/05/27 11:16:47;;;;;;;4.97;2.15;;;20.60;98.70;;;;;;5073525;28;20217;-76
2022/05/27 11:19:54;;;;;;;3.85;1.67;;;20.30;98.30;;;;;;5073512;28;20281;-76
2022/05/27 11:22:35;;;;;;;5.00;1.60;;;19.80;99.60;;;;;;5073694;28;20207;-75
2022/05/27 11:25:07;;;;;;;5.68;1.95;;;19.90;99.60;;;;;;5055694;28;20234;-76
2022/05/27 11:27:40;;;;;;;6.57;1.90;;;19.70;99.80;;;;;;5073581;28;20195;-75
2022/05/27 11:30:31;;;;;;;6.45;2.85;;;19.70;99.90;;;;;;5073154;28;20214;-75
2022/05/27 11:33:30;;;;;;;5.60;1.90;;;20.40;99.90;;;;;;5055760;28;20199;-75
2022/05/27 11:36:17;;;;;;;6.78;2.17;;;20.60;99.90;;;;;;5070185;28;20202;-75
2022/05/27 11:39:17;;;;;;;10.50;3.20;;;20.50;99.90;;;;;;5047207;28;20195;-75
2022/05/27 11:41:52;;;;;;;7.97;2.88;;;20.80;99.90;;;;;;5048714;28;20207;-75
2022/05/27 11:44:23;;;;;;;8.30;2.97;;;20.20;99.90;;;;;;5073614;28;20540;-74
2022/05/27 11:47:12;;;;;;;11.27;3.45;;;19.90;99.90;;;;;;5064407;28;20191;-75
2022/05/27 11:50:14;;;;;;;7.10;2.30;;;19.70;99.90;;;;;;5068293;28;20698;-77
2022/05/27 11:52:52;;;;;;;5.72;1.75;;;19.40;99.90;;;;;;5066186;28;20299;-75
2022/05/27 11:55:29;;;;;;;7.55;2.58;;;19.00;99.90;;;;;;5051685;28;20234;-71
2022/05/27 11:58:25;;;;;;;9.00;2.38;;;18.60;99.90;;;;;;5071619;28;20304;-71
2022/05/27 12:01:09;;;;;;;9.32;2.60;;;18.30;99.90;;;;;;5046175;28;20251;-72
2022/05/27 12:04:09;;;;;;;6.70;2.33;;;17.90;99.90;;;;;;5066798;28;20203;-71
2022/05/27 12:06:57;;;;;;;7.28;2.22;;;18.10;99.90;;;;;;5053530;28;20207;-70
2022/05/27 12:09:32;;;;;;;9.65;2.22;;;18.70;99.90;;;;;;5068731;28;20205;-69
2022/05/27 12:12:06;;;;;;;5.55;2.33;;;18.70;99.90;;;;;;5072906;28;20210;-71
2022/05/27 12:14:51;;;;;;;9.25;2.25;;;18.80;99.90;;;;;;5054574;28;20285;-69
2022/05/27 12:17:22;;;;;;;5.28;1.92;;;19.10;99.90;;;;;;5069451;28;20623;-71
2022/05/27 12:19:57;;;;;;;6.63;2.22;;;19.00;99.90;;;;;;5064547;28;20535;-71
2022/05/27 12:22:27;;;;;;;7.95;2.28;;;19.00;99.90;;;;;;5083799;28;20258;-70
2022/05/27 12:25:04;;;;;;;7.20;2.72;;;19.20;99.90;;;;;;5097234;28;20183;-73
2022/05/27 12:27:32;;;;;;;7.38;2.20;;;19.00;99.90;;;;;;5059824;28;20199;-76
2022/05/27 12:29:58;;;;;;;8.80;2.17;;;19.10;99.90;;;;;;5078223;28;20206;-75
2022/05/27 12:32:27;;;;;;;5.38;1.98;;;19.30;99.90;;;;;;5076645;28;20205;-76
2022/05/27 12:35:13;;;;;;;8.05;2.00;;;19.30;99.90;;;;;;5082341;28;20190;-75
2022/05/27 12:37:49;;;;;;;7.97;2.25;;;19.50;99.90;;;;;;5066766;28;20211;-73
2022/05/27 12:40:32;;;;;;;5.80;2.05;;;19.50;99.90;;;;;;5073580;28;20205;-73
2022/05/27 12:43:08;;;;;;;7.30;2.40;;;19.60;99.90;;;;;;5074814;28;20206;-73
2022/05/27 12:45:46;;;;;;;5.32;2.00;;;19.40;99.90;;;;;;5074110;28;20709;-72
2022/05/27 12:48:31;;;;;;;5.40;2.10;;;19.30;99.90;;;;;;5072740;28;20205;-73
2022/05/27 12:51:04;;;;;;;5.53;2.10;;;19.10;99.90;;;;;;5074889;28;20297;-74
2022/05/27 12:53:45;;;;;;;6.53;2.58;;;18.90;99.90;;;;;;5056092;28;20203;-74
2022/05/27 13:02:16;;;;;;;9.13;2.60;;;19.30;99.90;;;;;;5071451;28;20182;-71
2022/05/27 13:04:55;;;;;;;7.55;2.28;;;19.40;99.90;;;;;;5054232;28;20508;-70
2022/05/27 13:07:33;;;;;;;8.75;2.88;;;19.30;99.90;;;;;;5046280;28;20559;-70
2022/05/27 13:10:18;;;;;;;7.03;2.28;;;19.50;99.90;;;;;;5053166;28;20282;-70
2022/05/27 13:12:54;;;;;;;6.03;1.67;;;19.40;99.90;;;;;;5050797;28;20207;-71
2022/05/27 13:15:54;;;;;;;7.57;2.00;;;19.20;99.90;;;;;;5063648;28;20209;-71
2022/05/27 13:18:23;;;;;;;5.65;2.10;;;19.20;99.90;;;;;;5093226;22;20327;-75
2022/05/27 13:21:04;;;;;;;6.00;2.03;;;19.40;99.90;;;;;;5099911;28;20204;-74
2022/05/27 13:23:32;;;;;;;4.25;1.98;;;19.30;99.90;;;;;;5110182;28;20213;-73
2022/05/27 13:26:15;;;;;;;6.53;2.20;;;19.30;99.90;;;;;;5111889;28;20253;-73
2022/05/27 13:28:51;;;;;;;3.53;1.75;;;19.50;99.90;;;;;;5112751;28;20257;-71
2022/05/27 13:31:24;;;;;;;5.22;2.30;;;19.50;99.90;;;;;;5111924;28;20634;-73
2022/05/27 13:34:38;;;;;;;8.18;4.30;;;19.50;99.90;;;;;;5094111;28;20217;-73
2022/05/27 13:37:12;;;;;;;5.53;2.30;;;19.40;99.90;;;;;;5094356;28;20209;-73
2022/05/27 13:39:46;;;;;;;5.57;2.42;;;19.50;99.90;;;;;;5109246;28;20202;-73
2022/05/27 13:42:22;;;;;;;5.15;1.83;;;19.60;99.90;;;;;;5109430;28;20692;-75